createdAt,value
2022-10-05T00:03:11.420Z,12.85
2022-10-05T00:07:16.488Z,12.84
2022-10-05T00:11:18.585Z,12.84
2022-10-05T00:15:22.026Z,12.81
2022-10-05T00:19:26.230Z,12.79
2022-10-05T00:23:31.176Z,12.74
2022-10-05T00:27:39.238Z,12.74
2022-10-05T00:31:40.940Z,12.74
2022-10-05T00:35:42.596Z,12.74
2022-10-05T00:39:44.257Z,12.74
2022-10-05T00:43:51.931Z,12.71
2022-10-05T00:47:53.352Z,12.69
2022-10-05T00:52:30.892Z,12.66
2022-10-05T00:57:29.140Z,12.61
2022-10-05T01:01:54.935Z,12.56
2022-10-05T01:05:59.522Z,12.52
2022-10-05T01:10:20.376Z,12.48
2022-10-05T01:14:31.413Z,12.43
2022-10-05T01:19:10.748Z,12.36
2022-10-05T01:23:26.205Z,12.31
2022-10-05T01:27:35.454Z,12.31
2022-10-05T01:31:49.071Z,12.29
2022-10-05T01:36:04.741Z,12.25
2022-10-05T01:40:08.911Z,12.22
2022-10-05T01:44:17.733Z,12.19
2022-10-05T01:49:02.133Z,12.18
2022-10-05T01:53:27.896Z,12.16
2022-10-05T01:57:32.352Z,12.12
2022-10-05T02:01:43.027Z,12.08
2022-10-05T02:05:52.244Z,12.05
2022-10-05T02:10:04.644Z,12.03
2022-10-05T02:14:15.326Z,12.00
2022-10-05T02:18:23.961Z,11.98
2022-10-05T02:22:57.061Z,11.97
2022-10-05T02:26:59.082Z,11.98
2022-10-05T02:31:07.658Z,11.94
2022-10-05T02:35:18.684Z,11.93
2022-10-05T02:39:33.749Z,11.85
2022-10-05T02:43:41.985Z,11.81
2022-10-05T02:47:59.243Z,11.81
2022-10-05T02:52:25.046Z,11.77
2022-10-05T02:56:36.422Z,11.74
2022-10-05T03:00:49.485Z,11.70
2022-10-05T03:04:57.115Z,11.66
2022-10-05T03:09:05.412Z,11.64
2022-10-05T03:13:34.154Z,11.64
2022-10-05T03:18:27.415Z,11.63
2022-10-05T03:22:46.840Z,11.60
2022-10-05T03:27:05.358Z,11.59
2022-10-05T03:31:20.107Z,11.57
2022-10-05T03:35:35.539Z,11.56
2022-10-05T03:39:50.923Z,11.51
2022-10-05T03:44:04.410Z,11.48
2022-10-05T03:48:16.729Z,11.45
2022-10-05T03:52:28.298Z,11.42
2022-10-05T03:56:36.191Z,11.41
2022-10-05T04:00:40.381Z,11.41
2022-10-05T04:04:58.343Z,11.39
2022-10-05T04:09:11.020Z,11.38
2022-10-05T04:13:27.352Z,11.36
2022-10-05T04:17:36.821Z,11.35
2022-10-05T04:21:56.125Z,11.33
2022-10-05T04:26:04.318Z,11.31
2022-10-05T04:30:08.102Z,11.30
2022-10-05T04:34:26.306Z,11.30
2022-10-05T04:38:37.643Z,11.27
2022-10-05T04:43:13.474Z,11.28
2022-10-05T04:47:35.664Z,11.27
2022-10-05T04:51:51.269Z,11.27
2022-10-05T04:56:15.473Z,11.24
2022-10-05T05:00:30.003Z,11.24
2022-10-05T05:04:55.793Z,11.24
2022-10-05T05:09:21.060Z,11.21
2022-10-05T05:13:50.335Z,11.20
2022-10-05T05:18:37.318Z,11.24
2022-10-05T05:23:05.807Z,11.27
2022-10-05T05:27:34.269Z,11.27
2022-10-05T05:31:42.027Z,11.31
2022-10-05T05:36:13.737Z,11.33
2022-10-05T05:40:21.832Z,11.36
2022-10-05T05:44:38.705Z,11.36
2022-10-05T05:48:43.859Z,11.39
2022-10-05T05:53:07.153Z,11.44
2022-10-05T05:57:18.417Z,11.46
2022-10-05T06:01:44.192Z,11.51
2022-10-05T06:05:52.271Z,11.56
2022-10-05T06:10:02.697Z,11.57
2022-10-05T06:14:28.746Z,11.57
2022-10-05T06:18:32.875Z,11.59
2022-10-05T06:22:42.769Z,11.62
2022-10-05T06:27:12.356Z,11.67
2022-10-05T06:31:40.536Z,11.72
2022-10-05T06:36:05.296Z,11.72
2022-10-05T06:40:10.007Z,11.77
2022-10-05T06:44:25.885Z,11.79
2022-10-05T06:49:11.604Z,11.84
2022-10-05T06:54:11.142Z,11.88
2022-10-05T06:58:26.325Z,11.94
2022-10-05T07:03:06.263Z,11.94
2022-10-05T07:07:22.282Z,12.03
2022-10-05T07:11:30.847Z,12.19
2022-10-05T07:15:45.016Z,12.43
2022-10-05T07:20:13.612Z,12.52
2022-10-05T07:24:37.768Z,12.61
2022-10-05T07:29:12.680Z,12.59
2022-10-05T07:33:40.286Z,12.70
2022-10-05T07:37:55.513Z,12.73
2022-10-05T07:42:31.575Z,12.80
2022-10-05T07:46:51.779Z,12.79
2022-10-05T07:51:01.353Z,12.79
2022-10-05T07:55:26.643Z,12.80
2022-10-05T07:59:44.781Z,12.80
2022-10-05T08:03:58.446Z,12.88
2022-10-05T08:08:15.544Z,12.92
2022-10-05T08:12:31.888Z,13.03
2022-10-05T08:16:37.873Z,13.22
2022-10-05T08:20:45.995Z,13.38
2022-10-05T08:25:08.919Z,13.48
2022-10-05T08:29:41.598Z,13.53
2022-10-05T08:33:55.575Z,13.55
2022-10-05T08:37:57.976Z,13.59
2022-10-05T08:42:17.643Z,13.71
2022-10-05T08:46:28.296Z,13.83
2022-10-05T08:50:58.068Z,13.91
2022-10-05T08:54:59.523Z,14.05
2022-10-05T08:59:16.604Z,14.13
2022-10-05T09:03:34.178Z,14.24
2022-10-05T09:07:55.936Z,14.29
2022-10-05T09:12:22.887Z,14.31
2022-10-05T09:16:39.734Z,14.38
2022-10-05T09:20:57.682Z,14.46
2022-10-05T09:25:23.514Z,14.60
2022-10-05T09:30:05.308Z,14.78
2022-10-05T09:34:55.607Z,14.90
2022-10-05T09:39:20.913Z,15.01
2022-10-05T09:43:56.392Z,15.15
2022-10-05T09:48:26.315Z,15.30
2022-10-05T09:53:07.324Z,15.43
2022-10-05T09:57:37.066Z,15.58
2022-10-05T10:01:51.710Z,15.73
2022-10-05T10:06:12.722Z,15.86
2022-10-05T10:10:52.826Z,15.98
2022-10-05T10:15:13.401Z,16.13
2022-10-05T10:19:33.745Z,16.25
2022-10-05T10:23:54.685Z,16.36
2022-10-05T10:28:17.836Z,16.47
2022-10-05T10:32:31.335Z,16.65
2022-10-05T10:36:55.737Z,16.78
2022-10-05T10:41:12.135Z,16.91
2022-10-05T10:45:28.823Z,16.98
2022-10-05T10:49:52.663Z,17.07
2022-10-05T10:54:19.976Z,17.18
2022-10-05T10:58:53.494Z,17.32
2022-10-05T11:03:10.877Z,17.45
2022-10-05T11:07:38.615Z,17.55
2022-10-05T11:12:17.743Z,17.68
2022-10-05T11:16:56.722Z,17.79
2022-10-05T11:21:16.837Z,17.86
2022-10-05T11:25:36.491Z,17.95
2022-10-05T11:30:19.642Z,18.14
2022-10-05T11:34:39.771Z,18.21
2022-10-05T11:38:57.024Z,18.31
2022-10-05T11:43:16.827Z,18.44
2022-10-05T11:47:27.062Z,18.51
2022-10-05T11:51:43.595Z,18.53
2022-10-05T11:56:06.040Z,18.66
2022-10-05T12:00:25.432Z,18.75
2022-10-05T12:04:51.718Z,18.86
2022-10-05T12:08:56.531Z,18.99
2022-10-05T12:13:19.323Z,19.09
2022-10-05T12:17:36.914Z,19.17
2022-10-05T12:21:44.531Z,19.27
2022-10-05T12:25:52.056Z,19.42
2022-10-05T12:30:10.731Z,19.57
2022-10-05T12:34:41.784Z,19.71
2022-10-05T12:38:58.281Z,19.83
2022-10-05T12:43:18.424Z,19.98
2022-10-05T12:47:32.331Z,20.12
2022-10-05T12:51:56.394Z,20.26
2022-10-05T12:56:10.949Z,20.46
2022-10-05T13:00:19.063Z,20.69
2022-10-05T13:04:49.098Z,20.94
2022-10-05T13:09:08.544Z,21.16
2022-10-05T13:13:34.132Z,21.30
2022-10-05T13:18:13.668Z,21.49
2022-10-05T13:22:46.356Z,21.63
2022-10-05T13:26:53.807Z,21.73
2022-10-05T13:31:13.045Z,21.79
2022-10-05T13:35:26.586Z,21.85
2022-10-05T13:39:56.731Z,21.89
2022-10-05T13:44:14.829Z,21.99
2022-10-05T13:48:22.462Z,22.11
2022-10-05T13:52:30.395Z,22.14
2022-10-05T13:56:42.855Z,22.23
2022-10-05T14:00:56.363Z,22.27
2022-10-05T14:05:01.013Z,22.39
2022-10-05T14:09:02.963Z,22.52
2022-10-05T14:13:43.498Z,22.59
2022-10-05T14:17:45.149Z,22.70
2022-10-05T14:21:59.180Z,22.70
2022-10-05T14:26:04.339Z,22.63
2022-10-05T14:30:12.178Z,22.59
2022-10-05T14:34:27.445Z,22.60
2022-10-05T14:38:57.910Z,22.63
2022-10-05T14:43:16.881Z,22.69
2022-10-05T14:47:22.775Z,22.72
2022-10-05T14:51:30.426Z,22.78
2022-10-05T14:55:55.546Z,22.79
2022-10-05T15:00:13.408Z,22.81
2022-10-05T15:04:30.325Z,22.84
2022-10-05T15:08:41.409Z,22.88
2022-10-05T15:12:48.185Z,22.86
2022-10-05T15:17:16.827Z,22.86
2022-10-05T15:21:42.117Z,22.82
2022-10-05T15:26:05.035Z,22.82
2022-10-05T15:30:17.848Z,22.78
2022-10-05T15:34:52.124Z,22.67
2022-10-05T15:39:23.280Z,22.57
2022-10-05T15:43:26.447Z,22.44
2022-10-05T15:47:46.999Z,22.31
2022-10-05T15:51:59.179Z,22.24
2022-10-05T15:56:20.317Z,22.14
2022-10-05T16:00:23.132Z,22.04
2022-10-05T16:04:45.614Z,21.90
2022-10-05T16:08:58.537Z,21.73
2022-10-05T16:13:22.671Z,21.53
2022-10-05T16:17:55.275Z,21.36
2022-10-05T16:22:14.312Z,21.16
2022-10-05T16:26:51.233Z,21.03
2022-10-05T16:31:18.106Z,20.87
2022-10-05T16:35:31.832Z,20.72
2022-10-05T16:39:48.583Z,20.60
2022-10-05T16:44:25.337Z,20.44
2022-10-05T16:48:39.996Z,20.27
2022-10-05T16:52:45.665Z,20.10
2022-10-05T16:56:52.876Z,19.98
2022-10-05T17:01:03.590Z,19.85
2022-10-05T17:05:38.525Z,19.72
2022-10-05T17:10:29.715Z,19.61
2022-10-05T17:14:36.985Z,19.47
2022-10-05T17:18:58.183Z,19.39
2022-10-05T17:23:18.212Z,19.30
2022-10-05T17:27:31.791Z,19.23
2022-10-05T17:32:30.276Z,19.13
2022-10-05T17:36:48.702Z,19.01
2022-10-05T17:41:11.853Z,18.91
2022-10-05T17:45:13.315Z,18.82
2022-10-05T17:49:19.819Z,18.74
2022-10-05T17:53:53.755Z,18.69
2022-10-05T17:57:58.697Z,18.64
2022-10-05T18:02:20.092Z,18.60
2022-10-05T18:06:21.583Z,18.50
2022-10-05T18:10:28.844Z,18.46
2022-10-05T18:14:54.913Z,18.38
2022-10-05T18:18:57.859Z,18.32
2022-10-05T18:23:29.333Z,18.28
2022-10-05T18:27:51.337Z,18.26
2022-10-05T18:32:02.829Z,18.23
2022-10-05T18:36:10.501Z,18.19
2022-10-05T18:40:34.292Z,18.20
2022-10-05T18:45:21.382Z,18.23
2022-10-05T18:49:44.577Z,18.32
2022-10-05T18:53:50.859Z,18.39
2022-10-05T18:58:15.559Z,18.39
2022-10-05T19:02:45.677Z,18.51
2022-10-05T19:07:08.134Z,18.57
2022-10-05T19:11:18.763Z,18.60
2022-10-05T19:15:34.028Z,18.60
2022-10-05T19:19:38.338Z,18.56
2022-10-05T19:24:04.352Z,18.62
2022-10-05T19:28:35.137Z,18.68
2022-10-05T19:32:53.673Z,18.66
2022-10-05T19:37:10.598Z,18.62
2022-10-05T19:41:42.212Z,18.54
2022-10-05T19:45:53.435Z,18.49
2022-10-05T19:49:55.355Z,18.42
2022-10-05T19:54:21.180Z,18.41
2022-10-05T19:58:28.709Z,18.35
2022-10-05T20:02:32.470Z,18.31
2022-10-05T20:06:34.240Z,18.26
2022-10-05T20:10:36.176Z,18.21
2022-10-05T20:14:59.396Z,18.16
2022-10-05T20:19:52.348Z,18.13
2022-10-05T20:24:14.172Z,18.05
2022-10-05T20:28:30.732Z,17.99
2022-10-05T20:32:32.782Z,17.95
2022-10-05T20:36:34.659Z,17.94
2022-10-05T20:40:36.157Z,17.89
2022-10-05T20:44:38.216Z,17.86
2022-10-05T20:48:39.721Z,17.80
2022-10-05T20:52:41.353Z,17.74
2022-10-05T20:56:42.844Z,17.71
2022-10-05T21:01:03.005Z,17.60
2022-10-05T21:05:05.173Z,17.54
2022-10-05T21:09:11.367Z,17.49
2022-10-05T21:13:12.908Z,17.43
2022-10-05T21:17:14.766Z,17.38
2022-10-05T21:21:17.717Z,17.28
2022-10-05T21:25:19.213Z,17.24
2022-10-05T21:29:20.902Z,17.21
2022-10-05T21:33:25.414Z,17.17
2022-10-05T21:37:27.155Z,17.15
2022-10-05T21:41:28.711Z,17.12
2022-10-05T21:45:30.611Z,17.07
2022-10-05T21:49:33.480Z,17.06
2022-10-05T21:53:40.682Z,17.03
2022-10-05T21:57:43.536Z,17.00
2022-10-05T22:01:45.128Z,16.98
2022-10-05T22:05:46.860Z,16.90
2022-10-05T22:09:49.716Z,16.82
2022-10-05T22:13:53.012Z,16.81
2022-10-05T22:17:54.771Z,16.77
2022-10-05T22:21:56.362Z,16.70
2022-10-05T22:25:58.053Z,16.65
2022-10-05T22:30:00.020Z,16.60
2022-10-05T22:34:01.536Z,16.55
2022-10-05T22:38:04.058Z,16.54
2022-10-05T22:42:06.182Z,16.51
2022-10-05T22:46:12.521Z,16.47
2022-10-05T22:50:14.305Z,16.45
2022-10-05T22:54:15.821Z,16.45
2022-10-05T22:58:17.329Z,16.44
2022-10-05T23:02:19.809Z,16.40
2022-10-05T23:06:21.474Z,16.40
2022-10-05T23:10:26.029Z,16.41
2022-10-05T23:14:29.242Z,16.40
2022-10-05T23:18:31.842Z,16.37
2022-10-05T23:22:37.765Z,16.37
2022-10-05T23:26:39.398Z,16.36
2022-10-05T23:30:41.019Z,16.33
2022-10-05T23:34:42.703Z,16.32
2022-10-05T23:38:44.750Z,16.33
2022-10-05T23:42:46.927Z,16.33
2022-10-05T23:46:48.871Z,16.36
2022-10-05T23:50:50.617Z,16.40
2022-10-05T23:54:52.172Z,16.40
2022-10-05T23:58:53.689Z,16.40
